Resolute, Canada
Current Conditions -  °F | °C
As of 7:00 AM on Friday 19 Dec 2014 (Local Time) from CYRB Reporting Station
Ice Pellets Ice Pellets  
Wind Chill: -44°   Ceiling: Unl
Heat Index: -27°   Visibility: 15mi
Dew Point: -33°   Wind: 6mph
Humidity: 75%   Direction: 350°N
Pressure: 30.1"   Gusts: NA
Location:  74.69°N, 94.91°W
Report Text: CYRB 191300Z 35005KT 15SM IC SKC M33/M36 A3010 RMK FROIN SLP206
Loading
Personal Weather Stations






























Interactive Weather Map New forecast layout! Learn more

10-Day Weather Forecast

Advertisements
Track Severe Weather on mobile